sensor_id;sensor_type;location;lat;lon;timestamp;P1;durP1;ratioP1;P2;durP2;ratioP2
12593;SDS011;6362;50.208;9.182;2024-03-02T00:01:07;13.02;;;7.47;;
12593;SDS011;6362;50.208;9.182;2024-03-02T00:03:34;13.45;;;8.02;;
12593;SDS011;6362;50.208;9.182;2024-03-02T00:06:02;12.43;;;7.30;;
12593;SDS011;6362;50.208;9.182;2024-03-02T00:08:27;9.43;;;6.80;;
12593;SDS011;6362;50.208;9.182;2024-03-02T00:10:58;10.00;;;7.00;;
12593;SDS011;6362;50.208;9.182;2024-03-02T00:13:24;8.63;;;6.05;;
12593;SDS011;6362;50.208;9.182;2024-03-02T00:15:56;8.93;;;6.47;;
12593;SDS011;6362;50.208;9.182;2024-03-02T00:18:34;12.90;;;7.22;;
12593;SDS011;6362;50.208;9.182;2024-03-02T00:21:00;9.32;;;5.95;;
12593;SDS011;6362;50.208;9.182;2024-03-02T00:23:29;9.13;;;5.78;;
12593;SDS011;6362;50.208;9.182;2024-03-02T00:25:56;11.05;;;7.00;;
12593;SDS011;6362;50.208;9.182;2024-03-02T00:28:32;10.57;;;6.32;;
12593;SDS011;6362;50.208;9.182;2024-03-02T00:31:08;9.73;;;6.47;;
12593;SDS011;6362;50.208;9.182;2024-03-02T00:33:47;8.55;;;5.97;;
12593;SDS011;6362;50.208;9.182;2024-03-02T00:36:14;8.95;;;6.30;;
12593;SDS011;6362;50.208;9.182;2024-03-02T00:41:07;9.35;;;6.25;;
12593;SDS011;6362;50.208;9.182;2024-03-02T00:46:19;9.68;;;6.45;;
12593;SDS011;6362;50.208;9.182;2024-03-02T00:48:52;9.35;;;6.80;;
12593;SDS011;6362;50.208;9.182;2024-03-02T00:51:20;10.27;;;7.00;;
12593;SDS011;6362;50.208;9.182;2024-03-02T00:53:46;9.55;;;6.38;;
12593;SDS011;6362;50.208;9.182;2024-03-02T00:56:12;13.68;;;7.18;;
12593;SDS011;6362;50.208;9.182;2024-03-02T00:58:38;14.40;;;7.90;;
12593;SDS011;6362;50.208;9.182;2024-03-02T01:01:04;9.07;;;6.13;;
12593;SDS011;6362;50.208;9.182;2024-03-02T01:03:32;9.93;;;7.13;;
12593;SDS011;6362;50.208;9.182;2024-03-02T01:05:58;10.68;;;6.85;;
12593;SDS011;6362;50.208;9.182;2024-03-02T01:08:24;12.18;;;7.13;;
12593;SDS011;6362;50.208;9.182;2024-03-02T01:10:49;9.52;;;6.60;;
12593;SDS011;6362;50.208;9.182;2024-03-02T01:13:15;13.40;;;8.10;;
12593;SDS011;6362;50.208;9.182;2024-03-02T01:15:40;13.55;;;7.75;;
12593;SDS011;6362;50.208;9.182;2024-03-02T01:18:06;11.63;;;7.50;;
12593;SDS011;6362;50.208;9.182;2024-03-02T01:20:31;11.15;;;6.95;;
12593;SDS011;6362;50.208;9.182;2024-03-02T01:22:57;12.20;;;6.85;;
12593;SDS011;6362;50.208;9.182;2024-03-02T01:25:22;14.52;;;8.68;;
12593;SDS011;6362;50.208;9.182;2024-03-02T01:27:48;11.73;;;7.25;;
12593;SDS011;6362;50.208;9.182;2024-03-02T01:30:13;15.60;;;8.75;;
12593;SDS011;6362;50.208;9.182;2024-03-02T01:32:39;15.02;;;7.80;;
12593;SDS011;6362;50.208;9.182;2024-03-02T01:35:05;12.95;;;8.07;;
12593;SDS011;6362;50.208;9.182;2024-03-02T01:37:32;15.02;;;9.93;;
12593;SDS011;6362;50.208;9.182;2024-03-02T01:39:57;12.98;;;7.55;;
12593;SDS011;6362;50.208;9.182;2024-03-02T01:42:23;10.70;;;7.97;;
12593;SDS011;6362;50.208;9.182;2024-03-02T01:44:48;11.55;;;6.80;;
12593;SDS011;6362;50.208;9.182;2024-03-02T01:47:14;12.63;;;7.10;;
12593;SDS011;6362;50.208;9.182;2024-03-02T01:49:39;14.68;;;8.23;;
12593;SDS011;6362;50.208;9.182;2024-03-02T01:52:06;11.65;;;7.28;;
12593;SDS011;6362;50.208;9.182;2024-03-02T01:54:32;14.00;;;8.13;;
12593;SDS011;6362;50.208;9.182;2024-03-02T01:56:57;17.15;;;9.35;;
12593;SDS011;6362;50.208;9.182;2024-03-02T01:59:23;12.02;;;8.20;;
12593;SDS011;6362;50.208;9.182;2024-03-02T02:01:49;12.82;;;7.68;;
12593;SDS011;6362;50.208;9.182;2024-03-02T02:04:14;14.00;;;8.77;;
12593;SDS011;6362;50.208;9.182;2024-03-02T02:06:40;13.85;;;8.20;;
12593;SDS011;6362;50.208;9.182;2024-03-02T02:09:05;14.98;;;7.68;;
12593;SDS011;6362;50.208;9.182;2024-03-02T02:11:33;12.25;;;7.43;;
12593;SDS011;6362;50.208;9.182;2024-03-02T02:13:59;15.98;;;9.88;;
12593;SDS011;6362;50.208;9.182;2024-03-02T02:16:25;18.45;;;10.45;;
12593;SDS011;6362;50.208;9.182;2024-03-02T02:18:50;17.30;;;9.93;;
12593;SDS011;6362;50.208;9.182;2024-03-02T02:21:16;25.60;;;12.35;;
12593;SDS011;6362;50.208;9.182;2024-03-02T02:23:41;15.20;;;8.48;;
12593;SDS011;6362;50.208;9.182;2024-03-02T02:26:11;15.27;;;8.40;;
12593;SDS011;6362;50.208;9.182;2024-03-02T02:28:37;19.80;;;10.95;;
12593;SDS011;6362;50.208;9.182;2024-03-02T02:31:02;16.80;;;9.38;;
12593;SDS011;6362;50.208;9.182;2024-03-02T02:33:28;20.73;;;11.18;;
12593;SDS011;6362;50.208;9.182;2024-03-02T02:35:54;23.15;;;12.23;;
12593;SDS011;6362;50.208;9.182;2024-03-02T02:38:19;16.30;;;10.57;;
12593;SDS011;6362;50.208;9.182;2024-03-02T02:40:45;18.17;;;11.38;;
12593;SDS011;6362;50.208;9.182;2024-03-02T02:43:10;25.48;;;13.82;;
12593;SDS011;6362;50.208;9.182;2024-03-02T02:45:36;24.70;;;13.82;;
12593;SDS011;6362;50.208;9.182;2024-03-02T02:48:01;21.10;;;12.95;;
12593;SDS011;6362;50.208;9.182;2024-03-02T02:50:27;26.65;;;14.73;;
12593;SDS011;6362;50.208;9.182;2024-03-02T02:52:53;27.05;;;15.75;;
12593;SDS011;6362;50.208;9.182;2024-03-02T02:55:18;20.35;;;11.05;;
12593;SDS011;6362;50.208;9.182;2024-03-02T02:57:44;18.02;;;10.38;;
12593;SDS011;6362;50.208;9.182;2024-03-02T03:00:12;22.92;;;12.18;;
12593;SDS011;6362;50.208;9.182;2024-03-02T03:02:43;26.23;;;15.10;;
12593;SDS011;6362;50.208;9.182;2024-03-02T03:05:10;28.30;;;15.05;;
12593;SDS011;6362;50.208;9.182;2024-03-02T03:07:37;26.33;;;14.65;;
12593;SDS011;6362;50.208;9.182;2024-03-02T03:10:04;26.52;;;15.65;;
12593;SDS011;6362;50.208;9.182;2024-03-02T03:12:31;24.58;;;14.63;;
12593;SDS011;6362;50.208;9.182;2024-03-02T03:14:57;23.33;;;13.40;;
12593;SDS011;6362;50.208;9.182;2024-03-02T03:17:23;26.02;;;14.35;;
12593;SDS011;6362;50.208;9.182;2024-03-02T03:19:49;24.90;;;13.90;;
12593;SDS011;6362;50.208;9.182;2024-03-02T03:22:15;30.02;;;16.15;;
12593;SDS011;6362;50.208;9.182;2024-03-02T03:24:41;26.77;;;14.65;;
12593;SDS011;6362;50.208;9.182;2024-03-02T03:27:07;27.38;;;15.77;;
12593;SDS011;6362;50.208;9.182;2024-03-02T03:29:32;23.98;;;14.40;;
12593;SDS011;6362;50.208;9.182;2024-03-02T03:31:58;28.55;;;16.35;;
12593;SDS011;6362;50.208;9.182;2024-03-02T03:34:23;24.58;;;15.05;;
12593;SDS011;6362;50.208;9.182;2024-03-02T03:36:48;26.38;;;15.52;;
12593;SDS011;6362;50.208;9.182;2024-03-02T03:39:14;24.42;;;14.70;;
12593;SDS011;6362;50.208;9.182;2024-03-02T03:41:42;21.13;;;13.93;;
12593;SDS011;6362;50.208;9.182;2024-03-02T03:44:08;23.58;;;12.40;;
12593;SDS011;6362;50.208;9.182;2024-03-02T03:46:33;20.70;;;11.80;;
12593;SDS011;6362;50.208;9.182;2024-03-02T03:48:59;21.38;;;12.52;;
12593;SDS011;6362;50.208;9.182;2024-03-02T03:51:24;18.13;;;12.35;;
12593;SDS011;6362;50.208;9.182;2024-03-02T03:53:50;23.00;;;13.63;;
12593;SDS011;6362;50.208;9.182;2024-03-02T03:56:15;25.45;;;13.45;;
12593;SDS011;6362;50.208;9.182;2024-03-02T03:58:40;24.60;;;12.50;;
12593;SDS011;6362;50.208;9.182;2024-03-02T04:01:06;22.77;;;13.35;;
12593;SDS011;6362;50.208;9.182;2024-03-02T04:03:32;25.40;;;13.50;;
12593;SDS011;6362;50.208;9.182;2024-03-02T04:05:57;25.38;;;15.25;;
12593;SDS011;6362;50.208;9.182;2024-03-02T04:08:22;25.30;;;14.65;;
12593;SDS011;6362;50.208;9.182;2024-03-02T04:10:48;25.08;;;14.00;;
12593;SDS011;6362;50.208;9.182;2024-03-02T04:13:13;25.52;;;14.60;;
12593;SDS011;6362;50.208;9.182;2024-03-02T04:15:39;26.52;;;14.00;;
12593;SDS011;6362;50.208;9.182;2024-03-02T04:18:05;19.42;;;12.52;;
12593;SDS011;6362;50.208;9.182;2024-03-02T04:20:31;20.02;;;12.13;;
12593;SDS011;6362;50.208;9.182;2024-03-02T04:22:56;22.10;;;12.70;;
12593;SDS011;6362;50.208;9.182;2024-03-02T04:25:22;22.23;;;12.40;;
12593;SDS011;6362;50.208;9.182;2024-03-02T04:27:47;21.90;;;13.40;;
12593;SDS011;6362;50.208;9.182;2024-03-02T04:30:13;19.00;;;11.68;;
12593;SDS011;6362;50.208;9.182;2024-03-02T04:32:38;20.27;;;10.70;;
12593;SDS011;6362;50.208;9.182;2024-03-02T04:35:04;22.50;;;12.20;;
12593;SDS011;6362;50.208;9.182;2024-03-02T04:37:31;21.17;;;12.30;;
12593;SDS011;6362;50.208;9.182;2024-03-02T04:39:59;20.13;;;12.00;;
12593;SDS011;6362;50.208;9.182;2024-03-02T04:42:25;17.40;;;10.98;;
12593;SDS011;6362;50.208;9.182;2024-03-02T04:44:50;20.65;;;13.02;;
12593;SDS011;6362;50.208;9.182;2024-03-02T04:47:16;25.08;;;13.00;;
12593;SDS011;6362;50.208;9.182;2024-03-02T04:49:41;24.48;;;12.98;;
12593;SDS011;6362;50.208;9.182;2024-03-02T04:52:06;22.08;;;13.55;;
12593;SDS011;6362;50.208;9.182;2024-03-02T04:54:32;30.17;;;15.63;;
12593;SDS011;6362;50.208;9.182;2024-03-02T04:57:00;26.63;;;15.65;;
12593;SDS011;6362;50.208;9.182;2024-03-02T04:59:25;26.13;;;13.07;;
12593;SDS011;6362;50.208;9.182;2024-03-02T05:01:50;26.33;;;14.73;;
12593;SDS011;6362;50.208;9.182;2024-03-02T05:04:16;23.55;;;12.77;;
12593;SDS011;6362;50.208;9.182;2024-03-02T05:06:41;22.75;;;11.95;;
12593;SDS011;6362;50.208;9.182;2024-03-02T05:09:07;20.80;;;13.38;;
12593;SDS011;6362;50.208;9.182;2024-03-02T05:11:33;22.15;;;13.60;;
12593;SDS011;6362;50.208;9.182;2024-03-02T05:14:05;27.42;;;14.98;;
12593;SDS011;6362;50.208;9.182;2024-03-02T05:16:34;22.15;;;12.77;;
12593;SDS011;6362;50.208;9.182;2024-03-02T05:19:01;22.38;;;11.82;;
12593;SDS011;6362;50.208;9.182;2024-03-02T05:21:27;21.83;;;11.02;;
12593;SDS011;6362;50.208;9.182;2024-03-02T05:23:52;19.00;;;11.68;;
12593;SDS011;6362;50.208;9.182;2024-03-02T05:26:18;21.13;;;11.82;;
12593;SDS011;6362;50.208;9.182;2024-03-02T05:28:43;22.70;;;12.55;;
12593;SDS011;6362;50.208;9.182;2024-03-02T05:31:13;20.02;;;12.13;;
12593;SDS011;6362;50.208;9.182;2024-03-02T05:33:40;26.80;;;15.10;;
12593;SDS011;6362;50.208;9.182;2024-03-02T05:36:06;25.10;;;13.63;;
12593;SDS011;6362;50.208;9.182;2024-03-02T05:38:32;23.88;;;13.52;;
12593;SDS011;6362;50.208;9.182;2024-03-02T05:40:59;23.70;;;13.40;;
12593;SDS011;6362;50.208;9.182;2024-03-02T05:43:25;23.75;;;13.93;;
12593;SDS011;6362;50.208;9.182;2024-03-02T05:45:50;23.40;;;12.60;;
12593;SDS011;6362;50.208;9.182;2024-03-02T05:48:15;22.83;;;13.07;;
12593;SDS011;6362;50.208;9.182;2024-03-02T05:50:41;22.48;;;12.90;;
12593;SDS011;6362;50.208;9.182;2024-03-02T05:53:06;20.30;;;13.13;;
12593;SDS011;6362;50.208;9.182;2024-03-02T05:55:32;21.70;;;13.85;;
12593;SDS011;6362;50.208;9.182;2024-03-02T05:57:58;22.08;;;13.05;;
12593;SDS011;6362;50.208;9.182;2024-03-02T06:00:23;26.50;;;13.68;;
12593;SDS011;6362;50.208;9.182;2024-03-02T06:02:49;22.15;;;12.85;;
12593;SDS011;6362;50.208;9.182;2024-03-02T06:05:14;21.52;;;13.05;;
12593;SDS011;6362;50.208;9.182;2024-03-02T06:07:41;21.92;;;13.00;;
12593;SDS011;6362;50.208;9.182;2024-03-02T06:10:06;19.45;;;11.25;;
12593;SDS011;6362;50.208;9.182;2024-03-02T06:12:34;19.83;;;12.40;;
12593;SDS011;6362;50.208;9.182;2024-03-02T06:14:59;20.30;;;12.40;;
12593;SDS011;6362;50.208;9.182;2024-03-02T06:17:25;20.83;;;12.48;;
12593;SDS011;6362;50.208;9.182;2024-03-02T06:19:50;26.77;;;13.13;;
12593;SDS011;6362;50.208;9.182;2024-03-02T06:22:16;23.05;;;12.95;;
12593;SDS011;6362;50.208;9.182;2024-03-02T06:24:41;21.90;;;12.27;;
12593;SDS011;6362;50.208;9.182;2024-03-02T06:27:07;20.83;;;12.18;;
12593;SDS011;6362;50.208;9.182;2024-03-02T06:29:33;20.98;;;12.88;;
12593;SDS011;6362;50.208;9.182;2024-03-02T06:31:59;19.67;;;11.70;;
12593;SDS011;6362;50.208;9.182;2024-03-02T06:34:24;21.27;;;12.27;;
12593;SDS011;6362;50.208;9.182;2024-03-02T06:36:50;21.70;;;11.70;;
12593;SDS011;6362;50.208;9.182;2024-03-02T06:39:15;18.40;;;11.85;;
12593;SDS011;6362;50.208;9.182;2024-03-02T06:41:41;18.52;;;11.15;;
12593;SDS011;6362;50.208;9.182;2024-03-02T06:44:07;16.98;;;10.50;;
12593;SDS011;6362;50.208;9.182;2024-03-02T06:46:33;19.38;;;12.23;;
12593;SDS011;6362;50.208;9.182;2024-03-02T06:48:58;18.05;;;11.52;;
12593;SDS011;6362;50.208;9.182;2024-03-02T06:51:24;24.10;;;13.18;;
12593;SDS011;6362;50.208;9.182;2024-03-02T06:53:49;23.17;;;13.00;;
12593;SDS011;6362;50.208;9.182;2024-03-02T06:56:15;22.48;;;13.52;;
12593;SDS011;6362;50.208;9.182;2024-03-02T06:58:40;22.35;;;12.65;;
12593;SDS011;6362;50.208;9.182;2024-03-02T07:01:07;23.83;;;14.20;;
12593;SDS011;6362;50.208;9.182;2024-03-02T07:03:33;20.33;;;12.48;;
12593;SDS011;6362;50.208;9.182;2024-03-02T07:05:58;20.00;;;13.07;;
12593;SDS011;6362;50.208;9.182;2024-03-02T07:08:24;22.70;;;12.60;;
12593;SDS011;6362;50.208;9.182;2024-03-02T07:10:49;22.35;;;11.85;;
12593;SDS011;6362;50.208;9.182;2024-03-02T07:13:15;20.48;;;12.50;;
12593;SDS011;6362;50.208;9.182;2024-03-02T07:15:40;22.13;;;13.18;;
12593;SDS011;6362;50.208;9.182;2024-03-02T07:18:29;21.42;;;13.07;;
12593;SDS011;6362;50.208;9.182;2024-03-02T07:20:55;20.40;;;12.52;;
12593;SDS011;6362;50.208;9.182;2024-03-02T07:23:23;20.58;;;11.63;;
12593;SDS011;6362;50.208;9.182;2024-03-02T07:25:52;20.08;;;12.70;;
12593;SDS011;6362;50.208;9.182;2024-03-02T07:28:21;18.23;;;12.00;;
12593;SDS011;6362;50.208;9.182;2024-03-02T07:31:00;20.02;;;12.45;;
12593;SDS011;6362;50.208;9.182;2024-03-02T07:33:27;24.15;;;13.02;;
12593;SDS011;6362;50.208;9.182;2024-03-02T07:35:53;18.98;;;12.02;;
12593;SDS011;6362;50.208;9.182;2024-03-02T07:38:20;14.95;;;9.07;;
12593;SDS011;6362;50.208;9.182;2024-03-02T07:40:46;28.58;;;11.82;;
12593;SDS011;6362;50.208;9.182;2024-03-02T07:43:12;19.73;;;12.63;;
12593;SDS011;6362;50.208;9.182;2024-03-02T07:45:37;19.15;;;11.65;;
12593;SDS011;6362;50.208;9.182;2024-03-02T07:48:03;18.58;;;11.52;;
12593;SDS011;6362;50.208;9.182;2024-03-02T07:50:29;17.17;;;10.75;;
12593;SDS011;6362;50.208;9.182;2024-03-02T07:52:55;21.05;;;10.13;;
12593;SDS011;6362;50.208;9.182;2024-03-02T07:55:21;15.38;;;10.25;;
12593;SDS011;6362;50.208;9.182;2024-03-02T07:57:50;17.40;;;11.13;;
12593;SDS011;6362;50.208;9.182;2024-03-02T08:00:15;15.43;;;10.25;;
12593;SDS011;6362;50.208;9.182;2024-03-02T08:02:41;18.48;;;10.73;;
12593;SDS011;6362;50.208;9.182;2024-03-02T08:05:07;15.60;;;10.40;;
12593;SDS011;6362;50.208;9.182;2024-03-02T08:07:33;19.85;;;11.30;;
12593;SDS011;6362;50.208;9.182;2024-03-02T08:09:59;16.52;;;10.27;;
12593;SDS011;6362;50.208;9.182;2024-03-02T08:12:24;16.77;;;10.50;;
12593;SDS011;6362;50.208;9.182;2024-03-02T08:14:50;18.77;;;10.73;;
12593;SDS011;6362;50.208;9.182;2024-03-02T08:17:15;15.45;;;9.40;;
12593;SDS011;6362;50.208;9.182;2024-03-02T08:19:41;16.67;;;10.60;;
12593;SDS011;6362;50.208;9.182;2024-03-02T08:22:06;17.63;;;10.52;;
12593;SDS011;6362;50.208;9.182;2024-03-02T08:24:32;17.35;;;9.55;;
12593;SDS011;6362;50.208;9.182;2024-03-02T08:26:58;20.00;;;11.55;;
12593;SDS011;6362;50.208;9.182;2024-03-02T08:29:24;17.90;;;11.57;;
12593;SDS011;6362;50.208;9.182;2024-03-02T08:31:50;17.17;;;10.57;;
12593;SDS011;6362;50.208;9.182;2024-03-02T08:34:15;15.77;;;9.90;;
12593;SDS011;6362;50.208;9.182;2024-03-02T08:36:41;19.90;;;11.10;;
12593;SDS011;6362;50.208;9.182;2024-03-02T08:39:07;16.42;;;10.32;;
12593;SDS011;6362;50.208;9.182;2024-03-02T08:41:40;17.60;;;10.60;;
12593;SDS011;6362;50.208;9.182;2024-03-02T08:44:12;19.23;;;10.88;;
12593;SDS011;6362;50.208;9.182;2024-03-02T08:46:41;15.95;;;10.10;;
12593;SDS011;6362;50.208;9.182;2024-03-02T08:49:06;16.92;;;9.60;;
12593;SDS011;6362;50.208;9.182;2024-03-02T08:51:32;15.30;;;9.50;;
12593;SDS011;6362;50.208;9.182;2024-03-02T08:53:58;18.15;;;10.07;;
12593;SDS011;6362;50.208;9.182;2024-03-02T08:56:24;17.70;;;9.55;;
12593;SDS011;6362;50.208;9.182;2024-03-02T08:58:50;14.77;;;10.13;;
12593;SDS011;6362;50.208;9.182;2024-03-02T09:01:17;15.82;;;10.15;;
12593;SDS011;6362;50.208;9.182;2024-03-02T09:03:44;17.02;;;10.57;;
12593;SDS011;6362;50.208;9.182;2024-03-02T09:06:10;17.15;;;10.02;;
12593;SDS011;6362;50.208;9.182;2024-03-02T09:08:36;14.63;;;9.98;;
12593;SDS011;6362;50.208;9.182;2024-03-02T09:11:03;17.67;;;9.68;;
12593;SDS011;6362;50.208;9.182;2024-03-02T09:13:29;48.42;;;22.88;;
12593;SDS011;6362;50.208;9.182;2024-03-02T09:15:55;14.98;;;9.73;;
12593;SDS011;6362;50.208;9.182;2024-03-02T09:18:21;14.45;;;9.15;;
12593;SDS011;6362;50.208;9.182;2024-03-02T09:20:46;15.63;;;9.98;;
12593;SDS011;6362;50.208;9.182;2024-03-02T09:23:11;12.48;;;8.30;;
12593;SDS011;6362;50.208;9.182;2024-03-02T09:25:37;13.35;;;7.97;;
12593;SDS011;6362;50.208;9.182;2024-03-02T09:28:02;15.68;;;9.10;;
12593;SDS011;6362;50.208;9.182;2024-03-02T09:30:28;13.90;;;8.63;;
12593;SDS011;6362;50.208;9.182;2024-03-02T09:32:54;14.73;;;9.20;;
12593;SDS011;6362;50.208;9.182;2024-03-02T09:35:19;13.63;;;9.07;;
12593;SDS011;6362;50.208;9.182;2024-03-02T09:37:45;14.75;;;8.43;;
12593;SDS011;6362;50.208;9.182;2024-03-02T09:40:11;11.48;;;7.68;;
12593;SDS011;6362;50.208;9.182;2024-03-02T09:42:38;14.65;;;8.65;;
12593;SDS011;6362;50.208;9.182;2024-03-02T09:45:04;10.63;;;7.45;;
12593;SDS011;6362;50.208;9.182;2024-03-02T09:47:30;11.07;;;7.70;;
12593;SDS011;6362;50.208;9.182;2024-03-02T09:49:56;14.57;;;8.85;;
12593;SDS011;6362;50.208;9.182;2024-03-02T09:52:24;13.73;;;8.93;;
12593;SDS011;6362;50.208;9.182;2024-03-02T09:54:50;12.88;;;8.35;;
12593;SDS011;6362;50.208;9.182;2024-03-02T09:57:16;13.68;;;7.55;;
12593;SDS011;6362;50.208;9.182;2024-03-02T09:59:42;13.93;;;9.20;;
12593;SDS011;6362;50.208;9.182;2024-03-02T10:02:07;12.23;;;7.80;;
12593;SDS011;6362;50.208;9.182;2024-03-02T10:04:33;11.98;;;7.93;;
12593;SDS011;6362;50.208;9.182;2024-03-02T10:09:43;12.13;;;7.18;;
12593;SDS011;6362;50.208;9.182;2024-03-02T10:12:13;9.60;;;7.10;;
12593;SDS011;6362;50.208;9.182;2024-03-02T10:14:40;11.13;;;7.32;;
12593;SDS011;6362;50.208;9.182;2024-03-02T10:17:10;12.07;;;7.07;;
12593;SDS011;6362;50.208;9.182;2024-03-02T10:19:40;10.27;;;6.90;;
12593;SDS011;6362;50.208;9.182;2024-03-02T10:22:07;10.10;;;6.10;;
12593;SDS011;6362;50.208;9.182;2024-03-02T10:24:40;8.98;;;5.75;;
12593;SDS011;6362;50.208;9.182;2024-03-02T10:27:16;7.60;;;5.38;;
12593;SDS011;6362;50.208;9.182;2024-03-02T10:29:45;8.27;;;5.03;;
12593;SDS011;6362;50.208;9.182;2024-03-02T10:32:11;7.03;;;4.13;;
12593;SDS011;6362;50.208;9.182;2024-03-02T10:34:39;7.07;;;4.60;;
12593;SDS011;6362;50.208;9.182;2024-03-02T10:37:05;6.40;;;4.63;;
12593;SDS011;6362;50.208;9.182;2024-03-02T10:39:34;7.63;;;5.28;;
12593;SDS011;6362;50.208;9.182;2024-03-02T10:42:04;6.65;;;4.13;;
12593;SDS011;6362;50.208;9.182;2024-03-02T10:44:31;5.50;;;3.40;;
12593;SDS011;6362;50.208;9.182;2024-03-02T10:46:59;6.13;;;4.07;;
12593;SDS011;6362;50.208;9.182;2024-03-02T10:49:26;6.03;;;4.20;;
12593;SDS011;6362;50.208;9.182;2024-03-02T10:51:53;6.85;;;4.30;;
12593;SDS011;6362;50.208;9.182;2024-03-02T10:54:19;7.65;;;4.40;;
12593;SDS011;6362;50.208;9.182;2024-03-02T10:56:51;5.65;;;4.50;;
12593;SDS011;6362;50.208;9.182;2024-03-02T11:01:56;5.10;;;3.35;;
12593;SDS011;6362;50.208;9.182;2024-03-02T11:04:26;4.38;;;3.15;;
12593;SDS011;6362;50.208;9.182;2024-03-02T11:06:59;7.15;;;3.88;;
12593;SDS011;6362;50.208;9.182;2024-03-02T11:09:28;7.05;;;4.63;;
12593;SDS011;6362;50.208;9.182;2024-03-02T11:14:30;5.85;;;4.00;;
12593;SDS011;6362;50.208;9.182;2024-03-02T11:17:00;5.63;;;3.83;;
12593;SDS011;6362;50.208;9.182;2024-03-02T11:19:27;4.68;;;3.83;;
12593;SDS011;6362;50.208;9.182;2024-03-02T11:21:53;4.22;;;3.13;;
12593;SDS011;6362;50.208;9.182;2024-03-02T11:26:53;7.03;;;4.97;;
12593;SDS011;6362;50.208;9.182;2024-03-02T11:32:04;5.97;;;3.03;;
12593;SDS011;6362;50.208;9.182;2024-03-02T11:34:31;24.05;;;13.40;;
12593;SDS011;6362;50.208;9.182;2024-03-02T11:36:59;4.55;;;3.10;;
12593;SDS011;6362;50.208;9.182;2024-03-02T11:39:26;6.18;;;4.03;;
12593;SDS011;6362;50.208;9.182;2024-03-02T11:41:55;3.65;;;2.53;;
12593;SDS011;6362;50.208;9.182;2024-03-02T11:44:22;5.38;;;2.78;;
12593;SDS011;6362;50.208;9.182;2024-03-02T11:47:08;4.07;;;2.67;;
12593;SDS011;6362;50.208;9.182;2024-03-02T11:49:38;4.43;;;2.70;;
12593;SDS011;6362;50.208;9.182;2024-03-02T11:52:04;5.10;;;2.80;;
12593;SDS011;6362;50.208;9.182;2024-03-02T11:54:31;4.47;;;2.33;;
12593;SDS011;6362;50.208;9.182;2024-03-02T11:56:59;4.78;;;2.28;;
12593;SDS011;6362;50.208;9.182;2024-03-02T11:59:27;2.33;;;1.80;;
12593;SDS011;6362;50.208;9.182;2024-03-02T12:01:54;3.42;;;1.98;;
12593;SDS011;6362;50.208;9.182;2024-03-02T12:04:20;3.22;;;1.90;;
12593;SDS011;6362;50.208;9.182;2024-03-02T12:06:48;2.30;;;1.77;;
12593;SDS011;6362;50.208;9.182;2024-03-02T12:09:20;2.58;;;1.50;;
12593;SDS011;6362;50.208;9.182;2024-03-02T12:11:46;4.53;;;2.75;;
12593;SDS011;6362;50.208;9.182;2024-03-02T12:14:11;2.75;;;2.00;;
12593;SDS011;6362;50.208;9.182;2024-03-02T12:16:46;3.75;;;2.10;;
12593;SDS011;6362;50.208;9.182;2024-03-02T12:19:12;3.13;;;2.08;;
12593;SDS011;6362;50.208;9.182;2024-03-02T12:21:38;2.83;;;2.00;;
12593;SDS011;6362;50.208;9.182;2024-03-02T12:24:04;4.35;;;2.45;;
12593;SDS011;6362;50.208;9.182;2024-03-02T12:26:29;3.10;;;1.92;;
12593;SDS011;6362;50.208;9.182;2024-03-02T12:28:55;3.22;;;1.90;;
12593;SDS011;6362;50.208;9.182;2024-03-02T12:31:21;2.63;;;2.05;;
12593;SDS011;6362;50.208;9.182;2024-03-02T12:33:46;3.65;;;1.98;;
12593;SDS011;6362;50.208;9.182;2024-03-02T12:36:13;5.05;;;2.00;;
12593;SDS011;6362;50.208;9.182;2024-03-02T12:38:43;2.50;;;2.05;;
12593;SDS011;6362;50.208;9.182;2024-03-02T12:41:09;2.67;;;1.50;;
12593;SDS011;6362;50.208;9.182;2024-03-02T12:43:34;1.80;;;1.40;;
12593;SDS011;6362;50.208;9.182;2024-03-02T12:46:00;2.47;;;1.70;;
12593;SDS011;6362;50.208;9.182;2024-03-02T12:48:26;1.95;;;1.60;;
12593;SDS011;6362;50.208;9.182;2024-03-02T12:50:51;3.30;;;1.63;;
12593;SDS011;6362;50.208;9.182;2024-03-02T12:53:17;4.15;;;2.30;;
12593;SDS011;6362;50.208;9.182;2024-03-02T12:55:43;3.50;;;2.30;;
12593;SDS011;6362;50.208;9.182;2024-03-02T12:58:21;3.92;;;2.45;;
12593;SDS011;6362;50.208;9.182;2024-03-02T13:00:47;2.65;;;2.40;;
12593;SDS011;6362;50.208;9.182;2024-03-02T13:03:13;3.40;;;2.22;;
12593;SDS011;6362;50.208;9.182;2024-03-02T13:05:39;3.05;;;1.90;;
12593;SDS011;6362;50.208;9.182;2024-03-02T13:08:06;3.45;;;2.22;;
12593;SDS011;6362;50.208;9.182;2024-03-02T13:10:32;3.88;;;2.38;;
12593;SDS011;6362;50.208;9.182;2024-03-02T13:12:57;4.80;;;3.50;;
12593;SDS011;6362;50.208;9.182;2024-03-02T13:15:23;5.00;;;2.92;;
12593;SDS011;6362;50.208;9.182;2024-03-02T13:17:48;3.58;;;2.58;;
12593;SDS011;6362;50.208;9.182;2024-03-02T13:20:15;3.40;;;2.33;;
12593;SDS011;6362;50.208;9.182;2024-03-02T13:22:43;2.65;;;1.92;;
12593;SDS011;6362;50.208;9.182;2024-03-02T13:25:09;2.25;;;2.05;;
12593;SDS011;6362;50.208;9.182;2024-03-02T13:27:36;2.90;;;2.10;;
12593;SDS011;6362;50.208;9.182;2024-03-02T13:30:05;3.03;;;2.20;;
12593;SDS011;6362;50.208;9.182;2024-03-02T13:32:31;2.30;;;1.77;;
12593;SDS011;6362;50.208;9.182;2024-03-02T13:34:57;2.55;;;1.88;;
12593;SDS011;6362;50.208;9.182;2024-03-02T13:37:23;2.80;;;1.98;;
12593;SDS011;6362;50.208;9.182;2024-03-02T13:39:48;2.67;;;1.45;;
12593;SDS011;6362;50.208;9.182;2024-03-02T13:42:14;2.97;;;1.80;;
12593;SDS011;6362;50.208;9.182;2024-03-02T13:44:40;3.75;;;1.75;;
12593;SDS011;6362;50.208;9.182;2024-03-02T13:47:10;4.70;;;1.60;;
12593;SDS011;6362;50.208;9.182;2024-03-02T13:49:36;3.00;;;1.90;;
12593;SDS011;6362;50.208;9.182;2024-03-02T13:52:03;3.05;;;1.70;;
12593;SDS011;6362;50.208;9.182;2024-03-02T13:54:38;3.60;;;1.60;;
12593;SDS011;6362;50.208;9.182;2024-03-02T13:57:08;2.30;;;1.65;;
12593;SDS011;6362;50.208;9.182;2024-03-02T13:59:35;2.83;;;2.08;;
12593;SDS011;6362;50.208;9.182;2024-03-02T14:02:01;2.60;;;1.83;;
12593;SDS011;6362;50.208;9.182;2024-03-02T14:04:31;2.85;;;1.42;;
12593;SDS011;6362;50.208;9.182;2024-03-02T14:06:59;2.38;;;1.40;;
12593;SDS011;6362;50.208;9.182;2024-03-02T14:09:25;3.53;;;1.77;;
12593;SDS011;6362;50.208;9.182;2024-03-02T14:11:52;2.38;;;1.60;;
12593;SDS011;6362;50.208;9.182;2024-03-02T14:14:18;2.03;;;1.30;;
12593;SDS011;6362;50.208;9.182;2024-03-02T14:16:43;3.10;;;2.00;;
12593;SDS011;6362;50.208;9.182;2024-03-02T14:19:12;4.43;;;2.17;;
12593;SDS011;6362;50.208;9.182;2024-03-02T14:21:38;2.90;;;1.55;;
12593;SDS011;6362;50.208;9.182;2024-03-02T14:24:05;2.00;;;1.70;;
12593;SDS011;6362;50.208;9.182;2024-03-02T14:26:32;2.42;;;1.42;;
12593;SDS011;6362;50.208;9.182;2024-03-02T14:28:58;3.88;;;1.75;;
12593;SDS011;6362;50.208;9.182;2024-03-02T14:31:24;2.92;;;1.70;;
12593;SDS011;6362;50.208;9.182;2024-03-02T14:33:50;3.78;;;1.70;;
12593;SDS011;6362;50.208;9.182;2024-03-02T14:36:15;3.90;;;2.05;;
12593;SDS011;6362;50.208;9.182;2024-03-02T14:38:41;3.65;;;2.20;;
12593;SDS011;6362;50.208;9.182;2024-03-02T14:41:07;4.53;;;1.98;;
12593;SDS011;6362;50.208;9.182;2024-03-02T14:43:32;4.88;;;2.30;;
12593;SDS011;6362;50.208;9.182;2024-03-02T14:45:58;3.25;;;1.77;;
12593;SDS011;6362;50.208;9.182;2024-03-02T14:48:24;3.17;;;2.03;;
12593;SDS011;6362;50.208;9.182;2024-03-02T14:50:50;5.15;;;2.72;;
12593;SDS011;6362;50.208;9.182;2024-03-02T14:53:16;2.78;;;2.17;;
12593;SDS011;6362;50.208;9.182;2024-03-02T14:55:41;5.63;;;2.70;;
12593;SDS011;6362;50.208;9.182;2024-03-02T14:58:07;2.90;;;2.10;;
12593;SDS011;6362;50.208;9.182;2024-03-02T15:00:33;4.13;;;2.97;;